sensor_id;sensor_type;location;lat;lon;timestamp;P1;durP1;ratioP1;P2;durP2;ratioP2
29238;SDS011;16267;48.194;11.546;2022-08-23T00:00:08;4.18;;;2.70;;
29238;SDS011;16267;48.194;11.546;2022-08-23T00:02:36;5.50;;;2.78;;
29238;SDS011;16267;48.194;11.546;2022-08-23T00:05:02;6.32;;;2.67;;
29238;SDS011;16267;48.194;11.546;2022-08-23T00:07:28;3.88;;;2.40;;
29238;SDS011;16267;48.194;11.546;2022-08-23T00:09:54;8.13;;;2.75;;
29238;SDS011;16267;48.194;11.546;2022-08-23T00:12:20;3.85;;;2.50;;
29238;SDS011;16267;48.194;11.546;2022-08-23T00:14:48;4.10;;;2.42;;
29238;SDS011;16267;48.194;11.546;2022-08-23T00:17:17;3.13;;;2.58;;
29238;SDS011;16267;48.194;11.546;2022-08-23T00:19:44;5.03;;;2.90;;
29238;SDS011;16267;48.194;11.546;2022-08-23T00:22:10;5.43;;;2.22;;
29238;SDS011;16267;48.194;11.546;2022-08-23T00:24:36;4.25;;;2.55;;
29238;SDS011;16267;48.194;11.546;2022-08-23T00:27:04;4.47;;;2.90;;
29238;SDS011;16267;48.194;11.546;2022-08-23T00:29:44;7.32;;;2.70;;
29238;SDS011;16267;48.194;11.546;2022-08-23T00:32:15;7.93;;;2.30;;
29238;SDS011;16267;48.194;11.546;2022-08-23T00:34:47;3.78;;;2.60;;
29238;SDS011;16267;48.194;11.546;2022-08-23T00:37:14;3.53;;;2.40;;
29238;SDS011;16267;48.194;11.546;2022-08-23T00:39:41;5.30;;;2.75;;
29238;SDS011;16267;48.194;11.546;2022-08-23T00:45:15;3.65;;;2.28;;
29238;SDS011;16267;48.194;11.546;2022-08-23T00:48:08;5.80;;;2.78;;
29238;SDS011;16267;48.194;11.546;2022-08-23T00:50:36;3.67;;;2.47;;
29238;SDS011;16267;48.194;11.546;2022-08-23T00:53:16;4.05;;;2.45;;
29238;SDS011;16267;48.194;11.546;2022-08-23T00:55:48;5.40;;;2.50;;
29238;SDS011;16267;48.194;11.546;2022-08-23T00:58:19;5.55;;;2.42;;
29238;SDS011;16267;48.194;11.546;2022-08-23T10:08:20;4.43;;;1.70;;
29238;SDS011;16267;48.194;11.546;2022-08-23T10:10:54;6.85;;;1.80;;
29238;SDS011;16267;48.194;11.546;2022-08-23T10:13:38;3.65;;;1.40;;
29238;SDS011;16267;48.194;11.546;2022-08-23T10:26:34;5.45;;;1.50;;
29238;SDS011;16267;48.194;11.546;2022-08-23T10:29:38;2.40;;;1.33;;
29238;SDS011;16267;48.194;11.546;2022-08-23T10:41:17;5.70;;;1.88;;
29238;SDS011;16267;48.194;11.546;2022-08-23T10:46:57;4.53;;;1.77;;
29238;SDS011;16267;48.194;11.546;2022-08-23T10:49:36;7.75;;;2.17;;
29238;SDS011;16267;48.194;11.546;2022-08-23T10:52:05;9.15;;;1.98;;
29238;SDS011;16267;48.194;11.546;2022-08-23T10:54:39;2.53;;;1.50;;
29238;SDS011;16267;48.194;11.546;2022-08-23T10:57:37;3.28;;;1.80;;
29238;SDS011;16267;48.194;11.546;2022-08-23T11:00:07;2.67;;;1.77;;
29238;SDS011;16267;48.194;11.546;2022-08-23T11:09:00;2.00;;;1.40;;
29238;SDS011;16267;48.194;11.546;2022-08-23T11:14:46;4.35;;;1.42;;
29238;SDS011;16267;48.194;11.546;2022-08-23T11:28:49;4.53;;;1.20;;
29238;SDS011;16267;48.194;11.546;2022-08-23T11:37:27;4.65;;;1.30;;
29238;SDS011;16267;48.194;11.546;2022-08-23T11:40:13;2.47;;;1.40;;
29238;SDS011;16267;48.194;11.546;2022-08-23T11:43:02;3.33;;;1.55;;
29238;SDS011;16267;48.194;11.546;2022-08-23T11:48:54;3.00;;;1.65;;
29238;SDS011;16267;48.194;11.546;2022-08-23T11:51:39;3.15;;;1.48;;
29238;SDS011;16267;48.194;11.546;2022-08-23T12:01:08;3.92;;;1.52;;
29238;SDS011;16267;48.194;11.546;2022-08-23T12:03:54;5.10;;;1.50;;
29238;SDS011;16267;48.194;11.546;2022-08-23T12:06:47;4.07;;;1.35;;
29238;SDS011;16267;48.194;11.546;2022-08-23T12:14:47;3.03;;;1.20;;
29238;SDS011;16267;48.194;11.546;2022-08-23T12:20:13;4.32;;;1.30;;
29238;SDS011;16267;48.194;11.546;2022-08-23T12:23:02;4.78;;;1.80;;
29238;SDS011;16267;48.194;11.546;2022-08-23T12:25:41;3.72;;;1.45;;
29238;SDS011;16267;48.194;11.546;2022-08-23T12:39:47;5.72;;;1.40;;
29238;SDS011;16267;48.194;11.546;2022-08-23T12:42:26;3.05;;;1.30;;
29238;SDS011;16267;48.194;11.546;2022-08-23T12:45:06;4.10;;;1.30;;
29238;SDS011;16267;48.194;11.546;2022-08-23T12:47:37;3.15;;;1.58;;
29238;SDS011;16267;48.194;11.546;2022-08-23T12:50:15;5.70;;;1.83;;
29238;SDS011;16267;48.194;11.546;2022-08-23T12:53:11;3.88;;;1.23;;
29238;SDS011;16267;48.194;11.546;2022-08-23T12:55:41;4.05;;;1.40;;
29238;SDS011;16267;48.194;11.546;2022-08-23T12:58:11;3.67;;;1.33;;
29238;SDS011;16267;48.194;11.546;2022-08-23T13:00:53;5.47;;;1.45;;
29238;SDS011;16267;48.194;11.546;2022-08-23T13:06:15;4.53;;;1.55;;
29238;SDS011;16267;48.194;11.546;2022-08-23T13:08:52;2.83;;;1.63;;
29238;SDS011;16267;48.194;11.546;2022-08-23T13:22:56;5.05;;;1.40;;
29238;SDS011;16267;48.194;11.546;2022-08-23T13:34:39;4.10;;;1.30;;
29238;SDS011;16267;48.194;11.546;2022-08-23T13:37:24;1.95;;;1.20;;
29238;SDS011;16267;48.194;11.546;2022-08-23T13:42:56;2.38;;;1.25;;
29238;SDS011;16267;48.194;11.546;2022-08-23T13:45:32;3.03;;;1.23;;
29238;SDS011;16267;48.194;11.546;2022-08-23T13:56:11;3.40;;;1.25;;
29238;SDS011;16267;48.194;11.546;2022-08-23T13:58:39;4.88;;;1.30;;
29238;SDS011;16267;48.194;11.546;2022-08-23T14:01:05;2.88;;;1.30;;
29238;SDS011;16267;48.194;11.546;2022-08-23T14:03:41;2.67;;;1.48;;
29238;SDS011;16267;48.194;11.546;2022-08-23T14:06:07;2.97;;;1.23;;
29238;SDS011;16267;48.194;11.546;2022-08-23T14:08:32;2.50;;;1.55;;
29238;SDS011;16267;48.194;11.546;2022-08-23T14:10:58;3.38;;;1.30;;
29238;SDS011;16267;48.194;11.546;2022-08-23T14:13:26;4.80;;;1.40;;
29238;SDS011;16267;48.194;11.546;2022-08-23T14:15:54;1.98;;;1.20;;
29238;SDS011;16267;48.194;11.546;2022-08-23T14:18:27;4.03;;;1.55;;
29238;SDS011;16267;48.194;11.546;2022-08-23T14:20:53;5.68;;;1.48;;
29238;SDS011;16267;48.194;11.546;2022-08-23T14:23:24;2.05;;;1.20;;
29238;SDS011;16267;48.194;11.546;2022-08-23T14:25:52;2.55;;;1.10;;
29238;SDS011;16267;48.194;11.546;2022-08-23T14:28:21;3.20;;;1.10;;
29238;SDS011;16267;48.194;11.546;2022-08-23T14:30:51;2.53;;;1.10;;
29238;SDS011;16267;48.194;11.546;2022-08-23T14:33:16;1.77;;;1.20;;
29238;SDS011;16267;48.194;11.546;2022-08-23T14:35:44;1.08;;;0.90;;
29238;SDS011;16267;48.194;11.546;2022-08-23T14:38:10;2.15;;;0.82;;
29238;SDS011;16267;48.194;11.546;2022-08-23T14:40:37;2.80;;;1.02;;
29238;SDS011;16267;48.194;11.546;2022-08-23T14:43:05;2.10;;;1.08;;
29238;SDS011;16267;48.194;11.546;2022-08-23T14:45:31;2.33;;;1.20;;
29238;SDS011;16267;48.194;11.546;2022-08-23T14:47:57;1.85;;;0.90;;
29238;SDS011;16267;48.194;11.546;2022-08-23T14:50:22;2.80;;;0.95;;
29238;SDS011;16267;48.194;11.546;2022-08-23T14:52:48;1.70;;;0.85;;
29238;SDS011;16267;48.194;11.546;2022-08-23T14:55:14;3.00;;;1.15;;
29238;SDS011;16267;48.194;11.546;2022-08-23T14:57:40;1.30;;;1.02;;
29238;SDS011;16267;48.194;11.546;2022-08-23T15:00:07;1.95;;;0.88;;
29238;SDS011;16267;48.194;11.546;2022-08-23T15:02:44;1.73;;;1.13;;
29238;SDS011;16267;48.194;11.546;2022-08-23T15:05:12;2.80;;;1.02;;
29238;SDS011;16267;48.194;11.546;2022-08-23T15:07:39;4.38;;;1.40;;
29238;SDS011;16267;48.194;11.546;2022-08-23T15:10:05;3.35;;;1.27;;
29238;SDS011;16267;48.194;11.546;2022-08-23T15:12:34;2.35;;;1.23;;
29238;SDS011;16267;48.194;11.546;2022-08-23T15:15:02;1.58;;;1.35;;
29238;SDS011;16267;48.194;11.546;2022-08-23T15:17:34;5.78;;;1.10;;
29238;SDS011;16267;48.194;11.546;2022-08-23T15:20:24;3.15;;;1.23;;
29238;SDS011;16267;48.194;11.546;2022-08-23T15:22:57;1.90;;;0.98;;
29238;SDS011;16267;48.194;11.546;2022-08-23T15:25:24;2.88;;;1.30;;
29238;SDS011;16267;48.194;11.546;2022-08-23T15:27:54;4.10;;;1.25;;
29238;SDS011;16267;48.194;11.546;2022-08-23T15:30:21;2.72;;;1.13;;
29238;SDS011;16267;48.194;11.546;2022-08-23T15:32:48;3.90;;;1.17;;
29238;SDS011;16267;48.194;11.546;2022-08-23T15:35:14;2.35;;;1.45;;
29238;SDS011;16267;48.194;11.546;2022-08-23T15:37:40;3.33;;;1.70;;
29238;SDS011;16267;48.194;11.546;2022-08-23T15:40:07;3.38;;;1.48;;
29238;SDS011;16267;48.194;11.546;2022-08-23T15:42:35;4.28;;;1.60;;
29238;SDS011;16267;48.194;11.546;2022-08-23T15:45:01;2.67;;;1.30;;
29238;SDS011;16267;48.194;11.546;2022-08-23T15:47:33;2.03;;;1.35;;
29238;SDS011;16267;48.194;11.546;2022-08-23T15:50:08;2.25;;;1.10;;
29238;SDS011;16267;48.194;11.546;2022-08-23T15:52:34;2.28;;;1.48;;
29238;SDS011;16267;48.194;11.546;2022-08-23T15:55:00;2.55;;;1.13;;
29238;SDS011;16267;48.194;11.546;2022-08-23T15:57:26;3.17;;;1.55;;
29238;SDS011;16267;48.194;11.546;2022-08-23T16:00:05;3.22;;;1.60;;
29238;SDS011;16267;48.194;11.546;2022-08-23T16:02:35;2.75;;;1.45;;
29238;SDS011;16267;48.194;11.546;2022-08-23T16:07:32;6.55;;;1.50;;
29238;SDS011;16267;48.194;11.546;2022-08-23T16:10:01;1.98;;;1.23;;
29238;SDS011;16267;48.194;11.546;2022-08-23T16:12:30;2.88;;;1.33;;
29238;SDS011;16267;48.194;11.546;2022-08-23T16:14:57;5.25;;;1.83;;
29238;SDS011;16267;48.194;11.546;2022-08-23T16:17:24;16.10;;;1.83;;
29238;SDS011;16267;48.194;11.546;2022-08-23T16:19:50;1.85;;;1.08;;
29238;SDS011;16267;48.194;11.546;2022-08-23T16:22:17;1.80;;;1.17;;
29238;SDS011;16267;48.194;11.546;2022-08-23T16:24:43;4.47;;;1.30;;
29238;SDS011;16267;48.194;11.546;2022-08-23T16:27:14;3.25;;;1.10;;
29238;SDS011;16267;48.194;11.546;2022-08-23T16:29:40;3.60;;;1.50;;
29238;SDS011;16267;48.194;11.546;2022-08-23T16:32:10;3.60;;;1.55;;
29238;SDS011;16267;48.194;11.546;2022-08-23T16:34:36;3.75;;;1.73;;
29238;SDS011;16267;48.194;11.546;2022-08-23T16:37:03;5.95;;;1.73;;
29238;SDS011;16267;48.194;11.546;2022-08-23T16:39:33;3.75;;;1.40;;
29238;SDS011;16267;48.194;11.546;2022-08-23T16:44:35;2.80;;;1.45;;
29238;SDS011;16267;48.194;11.546;2022-08-23T16:47:02;3.47;;;1.70;;
29238;SDS011;16267;48.194;11.546;2022-08-23T16:49:29;2.50;;;1.50;;
29238;SDS011;16267;48.194;11.546;2022-08-23T16:51:58;4.80;;;1.80;;
29238;SDS011;16267;48.194;11.546;2022-08-23T16:54:25;5.03;;;1.90;;
29238;SDS011;16267;48.194;11.546;2022-08-23T16:56:52;2.95;;;1.40;;
29238;SDS011;16267;48.194;11.546;2022-08-23T16:59:19;3.00;;;1.52;;
29238;SDS011;16267;48.194;11.546;2022-08-23T17:01:52;7.50;;;1.73;;
29238;SDS011;16267;48.194;11.546;2022-08-23T17:04:27;4.82;;;1.48;;
29238;SDS011;16267;48.194;11.546;2022-08-23T17:06:55;4.53;;;1.55;;
29238;SDS011;16267;48.194;11.546;2022-08-23T17:09:22;2.97;;;1.25;;
29238;SDS011;16267;48.194;11.546;2022-08-23T17:11:54;4.25;;;1.45;;
29238;SDS011;16267;48.194;11.546;2022-08-23T17:14:22;6.57;;;1.50;;
29238;SDS011;16267;48.194;11.546;2022-08-23T17:16:48;7.22;;;1.83;;
29238;SDS011;16267;48.194;11.546;2022-08-23T17:19:14;4.22;;;1.60;;
29238;SDS011;16267;48.194;11.546;2022-08-23T17:21:40;4.80;;;1.70;;
29238;SDS011;16267;48.194;11.546;2022-08-23T17:24:07;3.55;;;1.70;;
29238;SDS011;16267;48.194;11.546;2022-08-23T17:29:03;2.25;;;1.55;;
29238;SDS011;16267;48.194;11.546;2022-08-23T17:31:33;4.88;;;2.38;;
29238;SDS011;16267;48.194;11.546;2022-08-23T17:34:00;8.32;;;2.20;;
29238;SDS011;16267;48.194;11.546;2022-08-23T17:36:32;2.90;;;1.80;;
29238;SDS011;16267;48.194;11.546;2022-08-23T17:39:06;5.50;;;1.60;;
29238;SDS011;16267;48.194;11.546;2022-08-23T17:41:36;3.22;;;1.45;;
29238;SDS011;16267;48.194;11.546;2022-08-23T17:44:13;5.15;;;1.75;;
29238;SDS011;16267;48.194;11.546;2022-08-23T17:46:40;6.95;;;1.88;;
29238;SDS011;16267;48.194;11.546;2022-08-23T17:49:09;3.42;;;1.77;;
29238;SDS011;16267;48.194;11.546;2022-08-23T17:51:36;3.42;;;1.67;;
29238;SDS011;16267;48.194;11.546;2022-08-23T17:54:05;5.38;;;1.77;;
29238;SDS011;16267;48.194;11.546;2022-08-23T17:56:32;6.32;;;1.92;;
29238;SDS011;16267;48.194;11.546;2022-08-23T17:59:06;4.60;;;2.00;;
29238;SDS011;16267;48.194;11.546;2022-08-23T18:01:33;3.25;;;1.80;;
29238;SDS011;16267;48.194;11.546;2022-08-23T18:03:59;4.57;;;1.90;;
29238;SDS011;16267;48.194;11.546;2022-08-23T18:06:25;5.35;;;2.30;;
29238;SDS011;16267;48.194;11.546;2022-08-23T18:09:09;7.55;;;2.70;;
29238;SDS011;16267;48.194;11.546;2022-08-23T18:14:43;4.70;;;1.95;;
29238;SDS011;16267;48.194;11.546;2022-08-23T18:17:12;7.65;;;2.03;;
29238;SDS011;16267;48.194;11.546;2022-08-23T18:19:44;3.63;;;2.30;;
29238;SDS011;16267;48.194;11.546;2022-08-23T18:22:13;4.00;;;2.80;;
29238;SDS011;16267;48.194;11.546;2022-08-23T18:24:42;4.88;;;2.40;;
29238;SDS011;16267;48.194;11.546;2022-08-23T18:27:11;5.93;;;2.53;;
29238;SDS011;16267;48.194;11.546;2022-08-23T18:30:08;4.22;;;2.10;;
29238;SDS011;16267;48.194;11.546;2022-08-23T18:32:38;3.50;;;2.33;;
29238;SDS011;16267;48.194;11.546;2022-08-23T18:35:25;2.92;;;2.08;;
29238;SDS011;16267;48.194;11.546;2022-08-23T18:38:01;3.65;;;2.40;;
29238;SDS011;16267;48.194;11.546;2022-08-23T18:40:28;5.53;;;2.92;;
29238;SDS011;16267;48.194;11.546;2022-08-23T18:42:55;3.55;;;2.67;;
29238;SDS011;16267;48.194;11.546;2022-08-23T18:45:24;3.40;;;2.60;;
29238;SDS011;16267;48.194;11.546;2022-08-23T18:47:50;5.13;;;2.85;;
29238;SDS011;16267;48.194;11.546;2022-08-23T18:50:16;5.45;;;3.10;;
29238;SDS011;16267;48.194;11.546;2022-08-23T18:52:43;6.05;;;3.30;;
29238;SDS011;16267;48.194;11.546;2022-08-23T18:55:09;9.02;;;3.20;;
29238;SDS011;16267;48.194;11.546;2022-08-23T18:57:35;5.22;;;2.95;;
29238;SDS011;16267;48.194;11.546;2022-08-23T19:00:02;5.07;;;3.58;;
29238;SDS011;16267;48.194;11.546;2022-08-23T19:02:29;5.40;;;3.10;;
29238;SDS011;16267;48.194;11.546;2022-08-23T19:05:04;5.40;;;3.28;;
29238;SDS011;16267;48.194;11.546;2022-08-23T19:07:31;6.72;;;3.30;;
29238;SDS011;16267;48.194;11.546;2022-08-23T19:09:57;6.50;;;3.10;;
29238;SDS011;16267;48.194;11.546;2022-08-23T19:12:35;4.88;;;2.80;;
29238;SDS011;16267;48.194;11.546;2022-08-23T19:15:02;3.42;;;2.80;;
29238;SDS011;16267;48.194;11.546;2022-08-23T19:17:38;6.72;;;3.40;;
29238;SDS011;16267;48.194;11.546;2022-08-23T19:20:04;5.00;;;3.03;;
29238;SDS011;16267;48.194;11.546;2022-08-23T19:22:32;10.43;;;3.33;;
29238;SDS011;16267;48.194;11.546;2022-08-23T19:25:02;5.78;;;3.35;;
29238;SDS011;16267;48.194;11.546;2022-08-23T19:30:06;10.38;;;4.25;;
29238;SDS011;16267;48.194;11.546;2022-08-23T19:32:35;8.13;;;4.18;;
29238;SDS011;16267;48.194;11.546;2022-08-23T19:35:05;7.72;;;4.30;;
29238;SDS011;16267;48.194;11.546;2022-08-23T19:37:32;6.90;;;4.07;;
29238;SDS011;16267;48.194;11.546;2022-08-23T19:39:58;8.68;;;4.60;;
29238;SDS011;16267;48.194;11.546;2022-08-23T19:42:25;7.32;;;4.22;;
29238;SDS011;16267;48.194;11.546;2022-08-23T19:44:52;10.30;;;4.10;;
29238;SDS011;16267;48.194;11.546;2022-08-23T19:47:18;6.10;;;4.00;;
29238;SDS011;16267;48.194;11.546;2022-08-23T19:49:58;6.50;;;3.30;;
29238;SDS011;16267;48.194;11.546;2022-08-23T19:52:24;6.47;;;3.17;;
29238;SDS011;16267;48.194;11.546;2022-08-23T19:54:51;10.13;;;3.72;;
29238;SDS011;16267;48.194;11.546;2022-08-23T19:57:17;8.80;;;3.58;;
29238;SDS011;16267;48.194;11.546;2022-08-23T19:59:48;5.80;;;3.38;;
29238;SDS011;16267;48.194;11.546;2022-08-23T20:02:14;8.52;;;3.78;;
29238;SDS011;16267;48.194;11.546;2022-08-23T20:07:21;9.82;;;3.88;;
29238;SDS011;16267;48.194;11.546;2022-08-23T20:09:50;10.43;;;4.32;;
29238;SDS011;16267;48.194;11.546;2022-08-23T20:12:22;10.13;;;5.03;;
29238;SDS011;16267;48.194;11.546;2022-08-23T20:14:49;11.00;;;4.50;;
29238;SDS011;16267;48.194;11.546;2022-08-23T20:17:15;10.00;;;4.55;;
29238;SDS011;16267;48.194;11.546;2022-08-23T20:19:42;9.00;;;4.55;;
29238;SDS011;16267;48.194;11.546;2022-08-23T20:22:08;8.52;;;4.78;;
29238;SDS011;16267;48.194;11.546;2022-08-23T20:25:05;10.30;;;4.32;;
29238;SDS011;16267;48.194;11.546;2022-08-23T20:27:32;8.15;;;4.85;;
29238;SDS011;16267;48.194;11.546;2022-08-23T20:30:01;10.85;;;4.78;;
29238;SDS011;16267;48.194;11.546;2022-08-23T20:32:30;9.00;;;4.85;;
29238;SDS011;16267;48.194;11.546;2022-08-23T20:35:02;9.90;;;4.90;;
29238;SDS011;16267;48.194;11.546;2022-08-23T20:37:36;12.95;;;5.00;;
29238;SDS011;16267;48.194;11.546;2022-08-23T20:40:05;17.48;;;6.03;;
29238;SDS011;16267;48.194;11.546;2022-08-23T20:45:30;10.55;;;5.20;;
29238;SDS011;16267;48.194;11.546;2022-08-23T20:47:57;12.48;;;5.63;;
29238;SDS011;16267;48.194;11.546;2022-08-23T20:50:23;12.48;;;5.03;;
29238;SDS011;16267;48.194;11.546;2022-08-23T20:52:58;7.55;;;4.50;;
29238;SDS011;16267;48.194;11.546;2022-08-23T20:55:24;5.78;;;4.07;;
29238;SDS011;16267;48.194;11.546;2022-08-23T20:57:50;11.15;;;4.53;;
29238;SDS011;16267;48.194;11.546;2022-08-23T21:02:50;9.05;;;4.35;;
29238;SDS011;16267;48.194;11.546;2022-08-23T21:05:16;8.27;;;4.90;;
29238;SDS011;16267;48.194;11.546;2022-08-23T21:07:42;6.82;;;4.32;;
29238;SDS011;16267;48.194;11.546;2022-08-23T21:10:08;9.40;;;4.45;;
29238;SDS011;16267;48.194;11.546;2022-08-23T21:12:34;7.50;;;4.10;;
29238;SDS011;16267;48.194;11.546;2022-08-23T21:17:35;7.32;;;4.72;;
29238;SDS011;16267;48.194;11.546;2022-08-23T21:22:49;8.27;;;4.35;;
29238;SDS011;16267;48.194;11.546;2022-08-23T21:25:15;6.68;;;4.60;;
29238;SDS011;16267;48.194;11.546;2022-08-23T21:27:42;8.80;;;4.80;;
29238;SDS011;16267;48.194;11.546;2022-08-23T21:30:08;8.55;;;4.63;;
29238;SDS011;16267;48.194;11.546;2022-08-23T21:32:37;10.52;;;4.57;;
29238;SDS011;16267;48.194;11.546;2022-08-23T21:35:04;7.55;;;4.38;;
29238;SDS011;16267;48.194;11.546;2022-08-23T21:37:30;8.18;;;4.45;;
29238;SDS011;16267;48.194;11.546;2022-08-23T21:39:59;6.20;;;4.60;;
29238;SDS011;16267;48.194;11.546;2022-08-23T21:42:29;7.30;;;4.95;;
29238;SDS011;16267;48.194;11.546;2022-08-23T21:44:55;9.15;;;5.38;;
29238;SDS011;16267;48.194;11.546;2022-08-23T21:47:21;8.25;;;5.07;;
29238;SDS011;16267;48.194;11.546;2022-08-23T21:49:47;10.65;;;5.05;;
29238;SDS011;16267;48.194;11.546;2022-08-23T21:52:13;14.25;;;5.47;;
29238;SDS011;16267;48.194;11.546;2022-08-23T21:54:38;9.73;;;5.57;;
29238;SDS011;16267;48.194;11.546;2022-08-23T21:57:04;11.25;;;6.00;;
29238;SDS011;16267;48.194;11.546;2022-08-23T21:59:30;10.38;;;5.95;;
29238;SDS011;16267;48.194;11.546;2022-08-23T22:01:56;12.48;;;6.35;;
29238;SDS011;16267;48.194;11.546;2022-08-23T22:04:22;11.43;;;5.85;;
29238;SDS011;16267;48.194;11.546;2022-08-23T22:06:48;10.02;;;6.32;;
29238;SDS011;16267;48.194;11.546;2022-08-23T22:09:16;8.93;;;5.95;;
29238;SDS011;16267;48.194;11.546;2022-08-23T22:11:45;13.52;;;6.63;;
29238;SDS011;16267;48.194;11.546;2022-08-23T22:14:14;9.82;;;6.63;;
29238;SDS011;16267;48.194;11.546;2022-08-23T22:16:47;10.60;;;7.35;;
29238;SDS011;16267;48.194;11.546;2022-08-23T22:19:14;10.18;;;6.35;;
29238;SDS011;16267;48.194;11.546;2022-08-23T22:21:41;13.70;;;6.95;;
29238;SDS011;16267;48.194;11.546;2022-08-23T22:24:09;12.95;;;6.68;;
29238;SDS011;16267;48.194;11.546;2022-08-23T22:26:35;10.82;;;6.72;;
29238;SDS011;16267;48.194;11.546;2022-08-23T22:29:03;11.27;;;6.95;;
29238;SDS011;16267;48.194;11.546;2022-08-23T22:31:31;9.65;;;6.20;;
29238;SDS011;16267;48.194;11.546;2022-08-23T22:33:59;16.20;;;6.43;;
29238;SDS011;16267;48.194;11.546;2022-08-23T22:36:27;10.80;;;5.95;;
29238;SDS011;16267;48.194;11.546;2022-08-23T22:38:57;8.98;;;6.00;;
29238;SDS011;16267;48.194;11.546;2022-08-23T22:41:25;10.43;;;5.63;;
29238;SDS011;16267;48.194;11.546;2022-08-23T22:44:00;9.38;;;6.15;;
29238;SDS011;16267;48.194;11.546;2022-08-23T22:46:28;9.85;;;6.28;;
29238;SDS011;16267;48.194;11.546;2022-08-23T22:48:57;8.52;;;5.45;;
29238;SDS011;16267;48.194;11.546;2022-08-23T22:51:25;8.90;;;5.38;;
29238;SDS011;16267;48.194;11.546;2022-08-23T22:53:55;7.00;;;5.00;;
29238;SDS011;16267;48.194;11.546;2022-08-23T22:56:29;13.85;;;6.30;;
29238;SDS011;16267;48.194;11.546;2022-08-23T22:58:57;9.65;;;5.88;;
29238;SDS011;16267;48.194;11.546;2022-08-23T23:01:34;8.75;;;5.50;;
29238;SDS011;16267;48.194;11.546;2022-08-23T23:04:04;8.63;;;5.32;;
29238;SDS011;16267;48.194;11.546;2022-08-23T23:06:32;8.77;;;6.03;;
29238;SDS011;16267;48.194;11.546;2022-08-23T23:08:59;10.63;;;5.95;;
29238;SDS011;16267;48.194;11.546;2022-08-23T23:11:26;10.90;;;5.72;;
29238;SDS011;16267;48.194;11.546;2022-08-23T23:13:52;11.43;;;5.60;;
29238;SDS011;16267;48.194;11.546;2022-08-23T23:16:19;8.98;;;5.68;;
29238;SDS011;16267;48.194;11.546;2022-08-23T23:18:49;11.65;;;6.05;;
29238;SDS011;16267;48.194;11.546;2022-08-23T23:21:35;10.43;;;5.82;;
29238;SDS011;16267;48.194;11.546;2022-08-23T23:26:34;10.93;;;6.80;;
29238;SDS011;16267;48.194;11.546;2022-08-23T23:29:03;8.98;;;6.63;;
29238;SDS011;16267;48.194;11.546;2022-08-23T23:31:29;11.48;;;5.97;;
29238;SDS011;16267;48.194;11.546;2022-08-23T23:33:55;9.63;;;5.63;;
29238;SDS011;16267;48.194;11.546;2022-08-23T23:36:21;8.52;;;5.75;;
29238;SDS011;16267;48.194;11.546;2022-08-23T23:38:47;11.25;;;5.25;;
29238;SDS011;16267;48.194;11.546;2022-08-23T23:41:13;10.20;;;6.10;;
29238;SDS011;16267;48.194;11.546;2022-08-23T23:43:39;8.82;;;5.57;;
29238;SDS011;16267;48.194;11.546;2022-08-23T23:46:10;8.35;;;5.25;;
29238;SDS011;16267;48.194;11.546;2022-08-23T23:48:42;11.00;;;5.45;;
29238;SDS011;16267;48.194;11.546;2022-08-23T23:51:11;10.30;;;6.05;;
29238;SDS011;16267;48.194;11.546;2022-08-23T23:53:40;10.07;;;5.90;;
29238;SDS011;16267;48.194;11.546;2022-08-23T23:56:07;14.45;;;5.78;;
29238;SDS011;16267;48.194;11.546;2022-08-23T23:58:36;8.32;;;4.90;;
